Time;durP1;ratioP1;P1;durP2;ratioP2;P2;SDS_P1;SDS_P2;PMS_P1;PMS_P2;Temp;Humidity;BMP_temperature;BMP_pressure;BME280_temperature;BME280_humidity;BME280_pressure;Samples;Min_cycle;Max_cycle;Signal;HPM_P1;HPM_P2
2024/04/08 00:01:02;;;;;;;2.00;0.90;;;14.20;99.90;;;;;;5073629;28;20201;-61
2024/04/08 00:03:28;;;;;;;2.70;1.10;;;14.10;99.90;;;;;;5052902;28;20186;-57
2024/04/08 00:05:55;;;;;;;3.13;1.50;;;14.10;99.90;;;;;;5087692;28;20248;-61
2024/04/08 00:08:21;;;;;;;1.80;0.90;;;14.10;99.90;;;;;;5077628;28;20221;-58
2024/04/08 00:10:48;;;;;;;4.27;1.37;;;14.00;99.90;;;;;;5086839;28;20189;-58
2024/04/08 00:13:13;;;;;;;1.47;0.63;;;14.00;99.90;;;;;;5076174;28;21030;-60
2024/04/08 00:15:42;;;;;;;1.30;0.80;;;14.00;99.90;;;;;;5074450;28;20247;-60
2024/04/08 00:18:07;;;;;;;2.80;0.80;;;13.90;99.90;;;;;;5056412;28;20271;-61
2024/04/08 00:20:34;;;;;;;2.27;0.90;;;13.90;99.90;;;;;;5081643;28;20197;-57
2024/04/08 00:23:01;;;;;;;3.40;0.87;;;13.90;99.90;;;;;;5081045;28;20221;-60
2024/04/08 00:25:28;;;;;;;1.30;0.80;;;13.80;99.90;;;;;;5080329;28;20190;-57
2024/04/08 00:27:54;;;;;;;2.73;1.00;;;13.80;99.90;;;;;;5077033;28;20288;-60
2024/04/08 00:30:21;;;;;;;4.13;1.20;;;13.80;99.90;;;;;;5074909;28;20922;-59
2024/04/08 00:32:48;;;;;;;1.73;0.90;;;13.80;99.90;;;;;;5086777;28;20695;-57
2024/04/08 00:35:15;;;;;;;1.27;0.60;;;13.80;99.90;;;;;;5037325;28;20304;-59
2024/04/08 00:37:41;;;;;;;2.63;0.90;;;13.70;99.90;;;;;;5089734;28;20197;-59
2024/04/08 00:40:08;;;;;;;1.57;0.93;;;13.70;99.90;;;;;;5071336;28;20267;-61
2024/04/08 00:42:34;;;;;;;2.37;1.17;;;13.70;99.90;;;;;;5077094;28;20263;-59
2024/04/08 00:45:01;;;;;;;3.70;0.90;;;13.70;99.90;;;;;;5077915;28;20202;-60
2024/04/08 00:47:28;;;;;;;3.60;0.90;;;13.70;99.90;;;;;;5080660;28;20190;-57
2024/04/08 00:49:56;;;;;;;2.50;0.80;;;13.70;99.90;;;;;;5058119;28;20306;-59
2024/04/08 00:52:22;;;;;;;2.60;1.03;;;13.70;99.90;;;;;;5085518;28;20210;-57
2024/04/08 00:54:49;;;;;;;1.63;1.40;;;13.60;99.90;;;;;;5073728;28;20221;-59
2024/04/08 00:57:15;;;;;;;1.57;0.90;;;13.60;99.90;;;;;;5072724;28;20190;-61
2024/04/08 00:59:42;;;;;;;1.80;0.90;;;13.60;99.90;;;;;;5083562;28;20205;-59
2024/04/08 01:02:08;;;;;;;1.97;0.90;;;13.60;99.90;;;;;;5082802;28;20190;-60
2024/04/08 01:04:35;;;;;;;1.37;0.90;;;13.60;99.90;;;;;;5056208;28;20801;-57
2024/04/08 01:07:03;;;;;;;1.70;1.30;;;13.50;99.90;;;;;;5084449;28;20190;-59
2024/04/08 01:09:30;;;;;;;2.67;1.10;;;13.50;99.90;;;;;;5068245;28;20245;-60
2024/04/08 01:11:56;;;;;;;1.63;1.20;;;13.50;99.90;;;;;;5076885;28;20202;-60
2024/04/08 01:14:23;;;;;;;3.27;1.23;;;13.50;99.90;;;;;;5081926;28;20839;-57
2024/04/08 01:16:49;;;;;;;1.87;1.07;;;13.40;99.90;;;;;;5083197;28;20205;-59
2024/04/08 01:19:22;;;;;;;1.97;0.87;;;13.40;99.90;;;;;;5079652;28;20210;-58
2024/04/08 01:21:47;;;;;;;1.87;1.10;;;13.40;99.90;;;;;;5053264;28;20209;-58
2024/04/08 01:24:16;;;;;;;2.60;1.00;;;13.40;99.90;;;;;;5062863;28;20284;-60
2024/04/08 01:26:41;;;;;;;5.13;1.10;;;13.50;99.90;;;;;;5077092;28;20739;-56
2024/04/08 01:29:09;;;;;;;1.00;0.90;;;13.40;99.90;;;;;;5087175;28;20297;-58
2024/04/08 01:31:35;;;;;;;3.17;1.10;;;13.40;99.90;;;;;;5088066;28;20191;-52
2024/04/08 01:34:02;;;;;;;2.00;0.70;;;13.40;99.90;;;;;;5089152;28;20194;-60
2024/04/08 01:36:29;;;;;;;2.63;1.27;;;13.40;99.90;;;;;;5051725;28;20365;-59
2024/04/08 01:38:56;;;;;;;3.73;1.10;;;13.30;99.90;;;;;;5081045;28;20217;-60
2024/04/08 01:41:24;;;;;;;1.23;0.93;;;13.30;99.90;;;;;;5076364;28;20198;-58
2024/04/08 01:43:50;;;;;;;5.50;1.00;;;13.30;99.90;;;;;;5088013;28;20190;-57
2024/04/08 01:46:16;;;;;;;2.23;1.00;;;13.30;99.90;;;;;;5082480;28;20190;-57
2024/04/08 01:48:44;;;;;;;4.10;1.07;;;13.30;99.90;;;;;;5083506;28;20229;-57
2024/04/08 01:51:10;;;;;;;3.37;0.97;;;13.40;99.90;;;;;;5051691;28;20202;-59
2024/04/08 01:53:37;;;;;;;3.43;1.00;;;13.40;99.90;;;;;;5082880;28;20266;-60
2024/04/08 01:56:03;;;;;;;2.40;1.20;;;13.40;99.90;;;;;;5082963;28;20274;-57
2024/04/08 01:58:31;;;;;;;4.93;1.20;;;13.40;99.90;;;;;;5086396;28;20213;-60
2024/04/08 02:00:58;;;;;;;1.67;0.90;;;13.40;99.90;;;;;;5084935;28;20221;-57
2024/04/08 02:03:24;;;;;;;2.30;1.13;;;13.40;99.90;;;;;;5085787;28;20323;-59
2024/04/08 02:05:50;;;;;;;2.43;1.07;;;13.40;99.90;;;;;;5046438;28;20236;-57
2024/04/08 02:08:17;;;;;;;5.37;1.33;;;13.40;99.90;;;;;;5080726;28;20337;-57
2024/04/08 02:10:43;;;;;;;5.10;1.17;;;13.30;99.90;;;;;;5086356;28;20849;-56
2024/04/08 02:13:10;;;;;;;4.33;1.07;;;13.40;99.90;;;;;;5079087;28;20213;-59
2024/04/08 02:15:37;;;;;;;2.13;1.43;;;13.40;99.90;;;;;;5086054;28;20201;-58
2024/04/08 02:18:06;;;;;;;3.73;1.43;;;13.40;99.90;;;;;;5081363;28;20205;-58
2024/04/08 02:20:36;;;;;;;1.77;1.57;;;13.40;99.90;;;;;;5076350;28;20189;-59
2024/04/08 02:23:03;;;;;;;3.57;1.50;;;13.40;99.90;;;;;;5056540;28;20205;-58
2024/04/08 02:25:29;;;;;;;4.97;1.70;;;13.40;99.90;;;;;;5085277;28;20194;-62
2024/04/08 02:27:55;;;;;;;3.77;1.67;;;13.40;99.90;;;;;;5070962;28;20262;-55
2024/04/08 02:30:22;;;;;;;2.07;1.20;;;13.40;99.90;;;;;;5084425;28;20198;-58
2024/04/08 02:32:50;;;;;;;3.13;1.57;;;13.40;99.90;;;;;;5077249;28;20248;-59
2024/04/08 02:35:16;;;;;;;1.80;1.03;;;13.50;99.90;;;;;;5079788;28;20246;-59
2024/04/08 02:37:43;;;;;;;4.33;1.60;;;13.50;99.90;;;;;;5059642;28;20201;-56
2024/04/08 02:40:10;;;;;;;4.83;1.60;;;13.50;99.90;;;;;;5086057;28;20270;-57
2024/04/08 02:42:37;;;;;;;3.53;1.70;;;13.50;99.90;;;;;;5076085;28;20243;-58
2024/04/08 02:45:04;;;;;;;4.23;1.80;;;13.50;99.90;;;;;;5092423;28;20226;-58
2024/04/08 02:47:31;;;;;;;4.70;1.90;;;13.40;99.90;;;;;;5075964;28;20345;-59
2024/04/08 02:49:58;;;;;;;2.13;1.80;;;13.40;99.90;;;;;;5080217;28;20222;-56
2024/04/08 02:52:25;;;;;;;2.10;1.60;;;13.40;99.90;;;;;;5082386;28;20198;-59
2024/04/08 02:54:52;;;;;;;3.40;1.90;;;13.30;99.90;;;;;;5053849;28;20218;-58
2024/04/08 02:57:19;;;;;;;2.73;2.10;;;13.40;99.90;;;;;;5080679;28;20866;-60
2024/04/08 02:59:47;;;;;;;3.90;1.87;;;13.40;99.90;;;;;;5073864;28;20206;-59
2024/04/08 03:02:14;;;;;;;3.13;2.57;;;13.30;99.90;;;;;;5077819;28;20672;-59
2024/04/08 03:04:39;;;;;;;3.27;2.30;;;13.30;99.90;;;;;;5060891;28;20219;-57
2024/04/08 03:07:08;;;;;;;3.07;2.03;;;13.30;99.90;;;;;;5086947;28;20194;-57
2024/04/08 03:09:33;;;;;;;3.67;2.50;;;13.30;99.90;;;;;;5051252;28;20307;-55
2024/04/08 03:12:00;;;;;;;3.47;2.50;;;13.30;99.90;;;;;;5082841;28;20190;-55
2024/04/08 03:14:26;;;;;;;3.30;2.20;;;13.30;99.90;;;;;;5059442;28;20206;-58
2024/04/08 03:16:53;;;;;;;4.23;2.30;;;13.30;99.90;;;;;;5076428;28;20251;-57
2024/04/08 03:19:19;;;;;;;3.87;2.97;;;13.30;99.90;;;;;;5081887;28;20607;-60
2024/04/08 03:21:46;;;;;;;4.53;3.33;;;13.30;99.90;;;;;;5082002;28;20188;-58
2024/04/08 03:24:13;;;;;;;4.10;2.80;;;13.30;99.90;;;;;;5085664;28;20271;-61
2024/04/08 03:26:40;;;;;;;5.20;3.23;;;13.30;99.90;;;;;;5057062;28;20891;-59
2024/04/08 03:29:06;;;;;;;4.23;3.00;;;13.30;99.90;;;;;;5067055;28;20217;-57
2024/04/08 03:31:32;;;;;;;6.03;3.10;;;13.30;99.90;;;;;;5075914;28;20800;-59
2024/04/08 03:33:58;;;;;;;3.23;2.93;;;13.30;99.90;;;;;;5068230;28;20217;-57
2024/04/08 03:36:25;;;;;;;6.87;3.40;;;13.30;99.90;;;;;;5084114;28;20186;-59
2024/04/08 03:38:52;;;;;;;3.50;2.70;;;13.30;99.90;;;;;;5085910;28;20214;-58
2024/04/08 03:41:20;;;;;;;4.70;3.47;;;13.30;99.90;;;;;;5050282;28;20585;-59
2024/04/08 03:43:47;;;;;;;3.87;3.47;;;13.30;99.90;;;;;;5076447;28;20193;-58
2024/04/08 03:46:14;;;;;;;5.73;3.40;;;13.30;99.90;;;;;;5064817;28;20209;-59
2024/04/08 03:48:41;;;;;;;6.90;3.50;;;13.20;99.90;;;;;;5080237;28;20206;-59
2024/04/08 03:51:08;;;;;;;6.57;3.50;;;13.30;99.90;;;;;;5075867;28;20206;-58
2024/04/08 03:53:37;;;;;;;4.63;3.57;;;13.20;99.90;;;;;;5080246;28;20213;-58
2024/04/08 03:56:05;;;;;;;3.77;3.27;;;13.20;99.90;;;;;;5077920;28;20201;-56
2024/04/08 03:58:33;;;;;;;5.10;3.33;;;13.20;99.90;;;;;;5028543;28;20852;-55
2024/04/08 04:00:59;;;;;;;8.60;3.37;;;13.30;99.90;;;;;;5073701;28;20238;-56
2024/04/08 04:03:26;;;;;;;4.47;3.33;;;13.30;99.90;;;;;;5084088;28;20220;-58
2024/04/08 04:05:52;;;;;;;4.00;3.33;;;13.20;99.90;;;;;;5084070;28;20206;-56
2024/04/08 04:08:19;;;;;;;6.13;3.20;;;13.30;99.90;;;;;;5073545;28;20217;-60
2024/04/08 04:10:45;;;;;;;7.53;4.13;;;13.30;99.90;;;;;;5076010;28;20194;-59
2024/04/08 04:13:12;;;;;;;8.57;3.87;;;13.30;99.90;;;;;;5052319;28;20696;-59
2024/04/08 04:15:39;;;;;;;4.60;2.73;;;13.30;99.90;;;;;;5072463;28;20218;-55
2024/04/08 04:18:06;;;;;;;6.40;3.33;;;13.20;99.90;;;;;;5073324;28;20205;-56
2024/04/08 04:20:39;;;;;;;4.53;3.30;;;13.30;99.90;;;;;;5070703;28;20214;-59
2024/04/08 04:23:06;;;;;;;6.03;3.53;;;13.20;99.90;;;;;;5073085;28;20193;-58
2024/04/08 04:25:32;;;;;;;4.83;3.70;;;13.20;99.90;;;;;;5069837;28;20188;-58
2024/04/08 04:28:00;;;;;;;4.83;3.50;;;13.20;99.90;;;;;;5057154;28;20197;-57
2024/04/08 04:30:26;;;;;;;3.90;3.57;;;13.20;99.90;;;;;;5067450;28;20883;-59
2024/04/08 04:32:54;;;;;;;8.43;3.43;;;13.20;99.90;;;;;;5080267;28;20213;-57
2024/04/08 04:35:20;;;;;;;4.90;3.93;;;13.20;99.90;;;;;;5087356;28;20205;-60
2024/04/08 04:37:47;;;;;;;5.20;3.93;;;13.30;99.90;;;;;;5059986;28;20215;-58
2024/04/08 04:40:13;;;;;;;6.53;4.40;;;13.30;99.90;;;;;;5075842;28;20213;-59
2024/04/08 04:42:43;;;;;;;7.47;4.03;;;13.30;99.90;;;;;;5050258;28;20224;-58
2024/04/08 04:45:09;;;;;;;8.70;3.83;;;13.20;99.90;;;;;;5079772;28;20205;-59
2024/04/08 04:47:35;;;;;;;4.60;4.07;;;13.20;99.90;;;;;;5070462;28;20271;-57
2024/04/08 04:50:03;;;;;;;8.20;4.57;;;13.20;99.90;;;;;;5085373;28;20218;-59
2024/04/08 04:52:30;;;;;;;8.97;4.70;;;13.20;99.90;;;;;;5066683;28;20222;-59
2024/04/08 04:54:56;;;;;;;6.10;4.10;;;13.20;99.90;;;;;;5071233;28;20206;-57
2024/04/08 04:57:24;;;;;;;5.60;4.57;;;13.30;99.90;;;;;;5081680;28;20259;-58
2024/04/08 04:59:49;;;;;;;6.17;4.77;;;13.30;99.90;;;;;;5054813;28;20229;-59
2024/04/08 05:02:16;;;;;;;7.90;5.13;;;13.30;99.90;;;;;;5080575;28;20672;-59
2024/04/08 05:04:44;;;;;;;8.97;4.80;;;13.30;99.90;;;;;;5075458;28;20906;-59
2024/04/08 05:07:12;;;;;;;7.53;4.77;;;13.30;99.90;;;;;;5080386;28;20194;-60
2024/04/08 05:09:38;;;;;;;5.60;4.27;;;13.30;99.90;;;;;;5069225;28;20341;-58
2024/04/08 05:12:05;;;;;;;5.63;4.77;;;13.30;99.90;;;;;;5081554;28;20677;-59
2024/04/08 05:14:31;;;;;;;6.40;5.10;;;13.30;99.90;;;;;;5052206;28;20232;-56
2024/04/08 05:17:00;;;;;;;9.97;6.00;;;13.30;99.90;;;;;;5078112;28;20186;-59
2024/04/08 05:19:26;;;;;;;7.40;5.93;;;13.30;99.90;;;;;;5058683;28;20965;-56
2024/04/08 05:21:52;;;;;;;10.47;8.17;;;13.30;99.90;;;;;;5076269;28;20230;-60
2024/04/08 05:24:19;;;;;;;11.07;8.03;;;13.30;99.90;;;;;;5071290;28;20206;-59
2024/04/08 05:26:46;;;;;;;11.93;7.90;;;13.30;99.90;;;;;;5084500;28;20247;-59
2024/04/08 05:29:12;;;;;;;12.43;9.27;;;13.30;99.90;;;;;;5091243;28;20208;-57
2024/04/08 05:31:39;;;;;;;9.97;9.00;;;13.30;99.90;;;;;;5051838;28;20202;-60
2024/04/08 05:34:09;;;;;;;12.40;9.17;;;13.30;99.90;;;;;;5052569;28;20226;-60
2024/04/08 05:36:36;;;;;;;11.63;9.07;;;13.30;99.90;;;;;;5080159;28;20182;-59
2024/04/08 05:39:02;;;;;;;12.30;9.20;;;13.30;99.90;;;;;;5054355;28;20205;-58
2024/04/08 05:41:31;;;;;;;14.10;9.90;;;13.30;99.90;;;;;;5073514;28;20256;-57
2024/04/08 05:43:57;;;;;;;12.33;10.20;;;13.30;99.90;;;;;;5085432;28;20251;-60
2024/04/08 05:46:24;;;;;;;12.87;10.33;;;13.20;99.90;;;;;;5050848;28;20195;-60
2024/04/08 05:48:50;;;;;;;16.50;11.17;;;13.20;99.90;;;;;;5076116;28;20294;-60
2024/04/08 05:51:17;;;;;;;15.60;12.23;;;13.20;99.90;;;;;;5080257;28;20190;-58
2024/04/08 05:53:43;;;;;;;18.53;13.17;;;13.20;99.90;;;;;;5089146;28;20214;-60
2024/04/08 05:56:10;;;;;;;17.07;13.23;;;13.20;99.90;;;;;;5050404;28;21573;-58
2024/04/08 05:58:37;;;;;;;19.47;13.10;;;13.20;99.90;;;;;;5078164;28;20209;-58
2024/04/08 06:01:04;;;;;;;16.83;12.80;;;13.20;99.90;;;;;;5077974;28;20217;-51
2024/04/08 06:03:30;;;;;;;21.80;13.60;;;13.20;99.90;;;;;;5034291;28;20229;-57
2024/04/08 06:05:58;;;;;;;18.17;12.67;;;13.20;99.90;;;;;;5080622;28;20224;-52
2024/04/08 06:08:24;;;;;;;14.27;11.00;;;13.20;99.90;;;;;;5085403;28;20218;-59
2024/04/08 06:10:51;;;;;;;13.60;11.43;;;13.30;99.90;;;;;;5068598;28;20217;-55
2024/04/08 06:13:18;;;;;;;16.80;11.63;;;13.30;99.90;;;;;;5074435;28;20201;-60
2024/04/08 06:15:46;;;;;;;12.27;10.23;;;13.20;99.90;;;;;;5076677;28;20881;-58
2024/04/08 06:18:13;;;;;;;13.30;10.33;;;13.30;99.90;;;;;;5057384;28;20209;-58
2024/04/08 06:20:42;;;;;;;18.23;9.63;;;13.30;99.90;;;;;;5078938;28;20192;-57
2024/04/08 06:23:08;;;;;;;12.53;9.07;;;13.30;99.90;;;;;;5075905;28;20302;-58
2024/04/08 06:25:36;;;;;;;10.50;8.97;;;13.30;99.90;;;;;;5068794;28;20847;-55
2024/04/08 06:28:02;;;;;;;9.87;7.53;;;13.40;99.90;;;;;;5073845;28;20205;-60
2024/04/08 06:30:29;;;;;;;9.43;7.73;;;13.40;99.90;;;;;;5082731;28;20907;-58
2024/04/08 06:32:57;;;;;;;7.93;6.37;;;13.40;99.90;;;;;;5080820;28;20320;-60
2024/04/08 06:35:24;;;;;;;6.07;5.23;;;13.50;99.90;;;;;;5047922;28;20199;-57
2024/04/08 06:37:51;;;;;;;6.73;5.00;;;13.50;99.90;;;;;;5083303;28;20616;-59
2024/04/08 06:40:18;;;;;;;8.30;5.13;;;13.40;99.90;;;;;;5074554;28;20198;-57
2024/04/08 06:42:44;;;;;;;9.97;4.67;;;13.40;99.90;;;;;;5056121;28;20206;-57
2024/04/08 06:45:11;;;;;;;5.40;4.47;;;13.40;99.90;;;;;;5074972;28;20202;-58
2024/04/08 06:47:38;;;;;;;6.77;4.80;;;13.40;99.90;;;;;;5085103;28;20187;-55
2024/04/08 06:50:07;;;;;;;4.97;4.27;;;13.50;99.90;;;;;;5038048;28;21368;-55
2024/04/08 06:52:34;;;;;;;7.80;4.17;;;13.50;99.90;;;;;;5074558;28;20202;-57
2024/04/08 06:55:01;;;;;;;15.77;4.47;;;13.50;99.90;;;;;;5072728;28;20271;-58
2024/04/08 06:57:28;;;;;;;6.10;3.70;;;13.60;99.90;;;;;;5070413;28;20707;-57
2024/04/08 06:59:55;;;;;;;7.10;3.47;;;13.60;99.90;;;;;;5055370;28;20700;-58
2024/04/08 07:02:22;;;;;;;4.00;3.60;;;13.70;99.90;;;;;;5060037;28;20198;-55
2024/04/08 07:04:49;;;;;;;3.93;3.03;;;13.70;99.90;;;;;;5022305;28;20200;-59
2024/04/08 07:07:17;;;;;;;5.10;3.37;;;13.80;99.90;;;;;;5073153;28;20202;-56
2024/04/08 07:09:44;;;;;;;3.13;2.93;;;13.90;99.90;;;;;;5078387;28;20635;-58
2024/04/08 07:12:11;;;;;;;6.13;2.90;;;13.90;99.90;;;;;;5057937;28;20359;-57
2024/04/08 07:14:38;;;;;;;5.50;3.20;;;14.00;99.90;;;;;;5064875;28;20289;-58
2024/04/08 07:17:05;;;;;;;5.30;2.67;;;14.10;99.90;;;;;;5053873;28;20625;-55
2024/04/08 07:19:33;;;;;;;2.63;2.30;;;14.10;99.90;;;;;;5040924;28;22510;-59
2024/04/08 07:22:00;;;;;;;3.27;2.20;;;14.10;99.90;;;;;;5076998;28;20202;-54
2024/04/08 07:24:28;;;;;;;3.33;2.40;;;14.10;99.90;;;;;;5075613;28;20186;-60
2024/04/08 07:26:55;;;;;;;2.33;1.93;;;14.10;99.90;;;;;;5056672;28;20198;-53
2024/04/08 07:29:22;;;;;;;2.80;1.93;;;14.10;99.90;;;;;;5064082;28;20226;-57
2024/04/08 07:31:48;;;;;;;3.10;2.03;;;14.10;99.90;;;;;;5083846;28;20242;-54
2024/04/08 07:34:19;;;;;;;3.50;1.90;;;14.10;99.90;;;;;;5086371;28;20214;-59
2024/04/08 07:36:46;;;;;;;4.53;1.93;;;14.20;99.90;;;;;;5049889;28;20947;-58
2024/04/08 07:39:13;;;;;;;2.87;1.73;;;14.30;99.90;;;;;;5068080;28;20989;-58
2024/04/08 07:41:41;;;;;;;2.80;1.93;;;14.40;99.90;;;;;;5076897;28;20201;-56
2024/04/08 07:44:08;;;;;;;4.67;1.97;;;14.50;99.90;;;;;;5080419;28;20194;-56
2024/04/08 07:46:35;;;;;;;3.90;1.70;;;14.60;99.90;;;;;;5076197;28;20204;-57
2024/04/08 07:49:03;;;;;;;1.53;1.33;;;14.50;99.90;;;;;;5090599;28;20209;-58
2024/04/08 07:51:29;;;;;;;1.50;1.00;;;14.50;99.90;;;;;;5046482;28;20715;-54
2024/04/08 07:53:57;;;;;;;2.90;1.00;;;14.40;99.90;;;;;;5070179;28;20238;-55
2024/04/08 07:56:23;;;;;;;2.57;1.20;;;14.40;99.90;;;;;;5079188;28;20186;-55
2024/04/08 07:58:52;;;;;;;3.90;1.13;;;14.40;99.90;;;;;;5073329;28;21674;-58
2024/04/08 08:01:18;;;;;;;1.30;0.70;;;14.40;99.90;;;;;;5062884;28;20251;-58
2024/04/08 08:03:45;;;;;;;3.13;1.27;;;14.50;99.90;;;;;;5083390;28;20203;-56
2024/04/08 08:06:13;;;;;;;2.23;1.20;;;14.60;99.90;;;;;;5048249;28;20198;-60
2024/04/08 08:08:41;;;;;;;3.73;1.03;;;14.80;99.90;;;;;;5030396;28;20760;-57
2024/04/08 08:11:10;;;;;;;2.50;0.90;;;14.80;99.90;;;;;;5070927;28;20205;-57
2024/04/08 08:13:37;;;;;;;2.77;0.90;;;14.90;99.90;;;;;;5063987;28;20718;-56
2024/04/08 08:16:07;;;;;;;2.50;0.90;;;15.00;99.90;;;;;;5051232;28;20201;-58
2024/04/08 08:18:34;;;;;;;1.80;0.87;;;15.00;99.90;;;;;;5065224;28;20737;-59
2024/04/08 08:21:02;;;;;;;3.33;1.23;;;15.00;99.90;;;;;;5061233;28;20339;-60
2024/04/08 08:23:29;;;;;;;1.57;1.07;;;15.10;99.90;;;;;;5042048;28;20203;-60
2024/04/08 08:25:58;;;;;;;3.03;0.77;;;15.10;99.90;;;;;;5050011;28;20259;-57
2024/04/08 08:28:25;;;;;;;3.03;0.77;;;15.10;99.90;;;;;;5047779;28;20217;-58
2024/04/08 08:30:52;;;;;;;1.83;0.93;;;15.20;99.90;;;;;;5045525;28;20218;-57
2024/04/08 08:33:21;;;;;;;1.33;0.80;;;15.30;99.90;;;;;;5066604;28;20214;-58
2024/04/08 08:35:49;;;;;;;2.60;1.10;;;15.30;99.90;;;;;;5066749;28;20824;-59
2024/04/08 08:38:15;;;;;;;3.40;0.80;;;15.30;99.90;;;;;;5043726;28;20869;-59
2024/04/08 08:40:45;;;;;;;0.93;0.90;;;15.60;99.90;;;;;;5074692;28;20923;-57
2024/04/08 08:43:12;;;;;;;5.07;1.10;;;15.70;99.90;;;;;;5085284;28;20205;-56
2024/04/08 08:45:46;;;;;;;1.90;1.00;;;15.70;99.90;;;;;;5047153;28;23074;-56
2024/04/08 08:48:13;;;;;;;3.13;1.03;;;15.70;99.90;;;;;;5065380;28;20213;-58
2024/04/08 08:50:42;;;;;;;7.20;1.10;;;15.80;99.90;;;;;;5067102;28;20275;-56
2024/04/08 08:53:09;;;;;;;5.67;1.30;;;15.90;99.90;;;;;;5076164;28;20668;-60
2024/04/08 08:55:38;;;;;;;1.97;0.93;;;16.00;99.90;;;;;;5046720;28;20190;-57
2024/04/08 08:58:06;;;;;;;2.07;0.80;;;16.10;99.90;;;;;;5087909;28;20942;-58
2024/04/08 09:00:38;;;;;;;3.07;1.27;;;16.10;99.90;;;;;;5069019;28;20181;-54
2024/04/08 09:03:05;;;;;;;3.33;1.10;;;16.10;99.90;;;;;;5053013;28;20218;-58
2024/04/08 09:05:32;;;;;;;2.43;1.10;;;16.10;99.90;;;;;;5043127;28;20285;-57
2024/04/08 09:08:00;;;;;;;4.50;0.90;;;16.20;99.90;;;;;;5077520;28;20201;-57
2024/04/08 09:10:28;;;;;;;1.93;0.77;;;16.40;99.90;;;;;;5041661;28;20273;-57
2024/04/08 09:12:54;;;;;;;2.30;0.97;;;16.50;99.90;;;;;;5084759;28;20679;-60
2024/04/08 09:15:23;;;;;;;1.87;1.00;;;16.50;99.90;;;;;;5069133;28;20222;-57
2024/04/08 09:17:49;;;;;;;1.97;0.80;;;16.60;99.90;;;;;;5049151;28;20563;-56
2024/04/08 09:20:17;;;;;;;3.10;0.90;;;16.70;99.90;;;;;;5073074;28;20940;-57
2024/04/08 09:22:43;;;;;;;2.87;0.70;;;16.80;99.90;;;;;;5073151;28;20201;-58
2024/04/08 09:25:13;;;;;;;2.67;0.83;;;16.90;99.90;;;;;;5046911;28;20194;-57
2024/04/08 09:27:40;;;;;;;1.00;0.87;;;16.90;99.90;;;;;;5070753;28;20226;-58
2024/04/08 09:30:08;;;;;;;1.73;0.77;;;17.00;99.90;;;;;;5067749;28;20687;-56
2024/04/08 09:32:35;;;;;;;1.03;0.60;;;17.00;99.90;;;;;;5061252;28;20789;-59
2024/04/08 09:35:03;;;;;;;1.40;0.80;;;17.00;99.90;;;;;;5076613;28;20228;-58
2024/04/08 09:37:31;;;;;;;1.80;0.80;;;17.00;99.90;;;;;;5068032;28;20224;-59
2024/04/08 09:39:59;;;;;;;2.47;0.60;;;17.10;99.90;;;;;;5078507;28;20214;-58
2024/04/08 09:42:32;;;;;;;1.97;0.60;;;17.10;99.90;;;;;;5039409;28;20217;-58
2024/04/08 09:45:03;;;;;;;4.00;1.23;;;17.20;99.90;;;;;;5071204;28;20198;-59
2024/04/08 09:47:30;;;;;;;0.60;0.57;;;17.20;99.90;;;;;;5066092;28;20189;-59
2024/04/08 09:49:59;;;;;;;3.43;0.70;;;17.20;99.90;;;;;;5066762;28;20210;-57
2024/04/08 09:52:25;;;;;;;4.00;1.13;;;17.40;99.90;;;;;;5072543;28;20206;-57
2024/04/08 09:54:54;;;;;;;2.63;0.80;;;17.40;99.90;;;;;;5080564;28;20210;-55
2024/04/08 09:57:25;;;;;;;2.63;0.80;;;17.40;99.90;;;;;;5042461;28;20198;-59
2024/04/08 09:59:56;;;;;;;2.87;0.77;;;17.40;99.90;;;;;;5070385;28;20402;-56
2024/04/08 10:02:36;;;;;;;1.90;0.80;;;17.40;99.90;;;;;;5066395;28;20300;-59
2024/04/08 10:05:05;;;;;;;1.47;0.70;;;17.40;99.90;;;;;;5068819;28;20197;-55
2024/04/08 10:07:33;;;;;;;2.20;0.80;;;17.40;99.90;;;;;;5076990;28;20217;-55
2024/04/08 10:10:02;;;;;;;2.40;0.80;;;17.40;99.90;;;;;;5058076;28;20229;-56
2024/04/08 10:12:31;;;;;;;3.13;0.80;;;17.30;99.90;;;;;;5043507;28;20209;-56
2024/04/08 10:15:10;;;;;;;3.13;1.10;;;17.40;99.90;;;;;;5074719;28;20210;-58
2024/04/08 10:17:36;;;;;;;2.50;0.77;;;17.50;99.90;;;;;;5065890;28;20214;-57
2024/04/08 10:20:06;;;;;;;1.23;0.80;;;17.50;99.90;;;;;;5068065;28;20298;-57
2024/04/08 10:22:33;;;;;;;2.43;0.67;;;17.50;99.90;;;;;;5063286;28;20811;-54
2024/04/08 10:25:01;;;;;;;2.37;0.83;;;17.60;99.90;;;;;;5078610;28;20568;-56
2024/04/08 10:27:27;;;;;;;2.23;1.10;;;17.60;99.90;;;;;;5040175;28;20909;-58
2024/04/08 10:29:57;;;;;;;2.33;0.90;;;17.60;99.90;;;;;;5076422;28;20323;-57
2024/04/08 10:32:25;;;;;;;0.73;0.53;;;17.60;99.90;;;;;;5067742;28;20198;-57
2024/04/08 10:34:55;;;;;;;6.10;1.83;;;17.60;99.90;;;;;;5070985;28;20300;-57
2024/04/08 10:37:20;;;;;;;1.23;0.80;;;17.70;99.90;;;;;;5064339;28;20280;-57
2024/04/08 10:39:48;;;;;;;3.00;0.87;;;17.70;99.90;;;;;;5071798;28;20238;-55
2024/04/08 10:42:15;;;;;;;1.17;1.03;;;17.70;99.90;;;;;;5036458;28;20198;-57
2024/04/08 10:44:43;;;;;;;2.70;0.90;;;17.80;99.90;;;;;;5081643;28;20206;-57
2024/04/08 10:47:10;;;;;;;1.57;0.83;;;17.80;99.90;;;;;;5045236;28;20820;-59
2024/04/08 10:49:41;;;;;;;1.53;1.00;;;17.90;99.90;;;;;;5079448;28;20209;-59
2024/04/08 10:52:10;;;;;;;3.03;0.93;;;18.00;99.90;;;;;;5048795;28;20198;-57
2024/04/08 10:54:38;;;;;;;3.13;0.77;;;18.00;99.90;;;;;;5061697;28;20348;-56
2024/04/08 10:57:05;;;;;;;1.87;0.93;;;18.00;99.90;;;;;;5029856;28;21644;-58
2024/04/08 10:59:32;;;;;;;2.67;1.10;;;18.00;99.90;;;;;;5086856;28;20214;-58
2024/04/08 11:01:58;;;;;;;3.63;1.00;;;18.00;99.90;;;;;;5041248;28;20205;-56
2024/04/08 11:04:27;;;;;;;2.10;1.07;;;18.00;99.90;;;;;;5076965;28;20657;-55
2024/04/08 11:08:34;;;;;;;2.30;0.70;;;18.10;99.90;;;;;;5493411;25;20622;-56
2024/04/08 11:11:00;;;;;;;1.87;1.07;;;18.10;99.90;;;;;;5480477;25;20721;-59
2024/04/08 11:13:31;;;;;;;1.43;0.80;;;18.10;99.90;;;;;;5408555;25;20239;-58
2024/04/08 11:15:59;;;;;;;0.73;0.63;;;18.20;99.90;;;;;;5455409;26;20307;-57
2024/04/08 11:18:28;;;;;;;1.67;0.77;;;18.30;99.90;;;;;;5452385;26;20265;-55
2024/04/08 11:20:54;;;;;;;1.67;0.73;;;18.50;99.90;;;;;;5445397;25;20250;-59
2024/04/08 11:23:24;;;;;;;2.30;0.80;;;18.50;99.90;;;;;;5434254;26;20276;-61
2024/04/08 11:25:54;;;;;;;1.27;0.73;;;18.60;99.90;;;;;;5473262;26;20418;-60
2024/04/08 11:28:26;;;;;;;1.40;0.77;;;18.60;99.90;;;;;;5426928;25;20251;-59
2024/04/08 11:30:53;;;;;;;2.00;0.73;;;18.70;99.90;;;;;;5469437;25;20250;-62
2024/04/08 11:33:22;;;;;;;1.83;0.80;;;18.60;99.90;;;;;;5450369;26;20222;-59
2024/04/08 11:35:48;;;;;;;4.83;1.37;;;18.60;99.90;;;;;;5449257;25;20359;-61
2024/04/08 11:38:18;;;;;;;1.07;0.70;;;18.50;99.90;;;;;;5449615;25;20251;-60
2024/04/08 11:40:45;;;;;;;1.07;0.60;;;18.50;99.90;;;;;;5460573;25;20745;-58
2024/04/08 11:43:17;;;;;;;2.63;0.90;;;18.50;99.90;;;;;;5459270;25;20235;-62
2024/04/08 11:45:43;;;;;;;2.03;0.80;;;18.40;99.90;;;;;;5435462;25;20289;-61
2024/04/08 11:48:13;;;;;;;2.97;0.93;;;18.50;99.90;;;;;;5435428;26;20239;-61
2024/04/08 11:50:41;;;;;;;1.57;1.13;;;18.60;99.90;;;;;;5454064;25;20246;-58
2024/04/08 11:53:10;;;;;;;1.53;0.90;;;18.80;99.90;;;;;;5450879;25;20904;-59
2024/04/08 11:55:37;;;;;;;1.97;0.87;;;19.00;99.90;;;;;;5455489;25;20292;-60
2024/04/08 11:58:07;;;;;;;3.30;0.90;;;19.00;99.90;;;;;;5467362;26;20607;-60
2024/04/08 12:00:35;;;;;;;1.90;0.90;;;19.10;99.90;;;;;;5428797;26;20245;-59
2024/04/08 12:03:04;;;;;;;0.70;0.60;;;19.10;99.90;;;;;;5435823;26;20355;-60
2024/04/08 12:05:30;;;;;;;1.73;0.70;;;19.20;99.90;;;;;;5455798;25;20239;-60
2024/04/08 12:07:58;;;;;;;0.50;0.50;;;19.30;99.90;;;;;;5438292;25;20249;-57
2024/04/08 12:10:24;;;;;;;1.13;0.70;;;19.30;99.90;;;;;;5446499;25;21216;-59
2024/04/08 12:12:53;;;;;;;2.60;0.80;;;19.20;99.90;;;;;;5464508;25;20234;-60
2024/04/08 12:15:20;;;;;;;1.63;0.80;;;19.20;99.90;;;;;;5415062;25;20247;-60
2024/04/08 12:17:51;;;;;;;1.30;1.10;;;19.20;99.90;;;;;;5445562;26;20231;-60
2024/04/08 12:20:17;;;;;;;2.13;1.23;;;19.30;99.90;;;;;;5438872;26;20330;-60
2024/04/08 12:22:45;;;;;;;2.20;0.60;;;19.40;99.90;;;;;;5437439;26;20240;-60
2024/04/08 12:25:11;;;;;;;2.83;0.90;;;19.40;99.90;;;;;;5415735;26;20298;-60
2024/04/08 12:27:40;;;;;;;4.33;0.80;;;19.50;99.90;;;;;;5443497;26;20243;-60
2024/04/08 12:30:08;;;;;;;1.63;0.70;;;19.60;99.90;;;;;;5402410;26;20644;-59
2024/04/08 12:32:38;;;;;;;2.87;1.03;;;19.50;99.90;;;;;;5423190;26;20754;-59
2024/04/08 12:35:07;;;;;;;3.80;0.53;;;19.70;99.90;;;;;;5426447;26;20417;-58
2024/04/08 12:37:36;;;;;;;3.83;1.27;;;19.80;99.90;;;;;;5438174;26;20594;-59
2024/04/08 12:40:04;;;;;;;3.93;1.00;;;19.60;99.90;;;;;;5443527;26;20235;-58
2024/04/08 12:42:32;;;;;;;1.67;0.80;;;19.50;99.90;;;;;;5426762;26;20256;-59
2024/04/08 12:44:58;;;;;;;2.63;0.87;;;19.50;99.90;;;;;;5419356;26;20339;-58
2024/04/08 12:47:26;;;;;;;3.07;1.10;;;19.30;99.90;;;;;;5404139;26;22176;-57